Time;durP1;ratioP1;P1;durP2;ratioP2;P2;SDS_P1;SDS_P2;PMS_P1;PMS_P2;Temp;Humidity;BMP_temperature;BMP_pressure;BME280_temperature;BME280_humidity;BME280_pressure;Samples;Min_cycle;Max_cycle;Signal;HPM_P1;HPM_P2
2023/03/21 00:01:12;;;;;;;24.63;14.13;;;10.60;99.90;;;;;;5001345;28;20222;-89
2023/03/21 00:03:38;;;;;;;25.42;14.25;;;10.50;99.90;;;;;;5010297;28;20045;-89
2023/03/21 00:06:06;;;;;;;28.38;14.90;;;10.50;99.90;;;;;;5005135;28;20142;-89
2023/03/21 00:08:31;;;;;;;25.73;14.73;;;10.50;99.90;;;;;;5002710;28;20498;-90
2023/03/21 00:10:59;;;;;;;24.73;15.00;;;10.50;99.90;;;;;;5021753;28;20088;-89
2023/03/21 00:13:27;;;;;;;24.58;14.60;;;10.50;99.90;;;;;;5001970;28;20052;-89
2023/03/21 00:15:56;;;;;;;24.67;13.68;;;10.50;99.90;;;;;;5019504;28;20048;-90
2023/03/21 00:18:26;;;;;;;23.40;13.55;;;10.50;99.90;;;;;;5044701;28;20037;-89
2023/03/21 00:21:00;;;;;;;21.88;13.05;;;10.50;99.90;;;;;;5003456;28;20030;-89
2023/03/21 00:23:26;;;;;;;24.25;12.82;;;10.60;99.90;;;;;;4998989;28;20033;-89
2023/03/21 00:25:53;;;;;;;23.33;12.63;;;10.60;99.90;;;;;;5018833;28;20038;-89
2023/03/21 00:28:19;;;;;;;28.15;14.40;;;10.50;99.90;;;;;;5023434;28;20033;-89
2023/03/21 00:30:45;;;;;;;31.17;14.45;;;10.60;99.90;;;;;;5018186;28;20045;-89
2023/03/21 00:33:12;;;;;;;29.48;13.77;;;10.60;99.90;;;;;;5018129;28;20045;-89
2023/03/21 00:35:42;;;;;;;38.42;15.85;;;10.50;99.90;;;;;;5002455;28;20045;-89
2023/03/21 00:38:08;;;;;;;50.63;18.08;;;10.60;99.90;;;;;;5003440;28;20254;-89
2023/03/21 00:40:36;;;;;;;54.40;19.02;;;10.60;99.90;;;;;;5001031;28;20049;-89
2023/03/21 00:43:02;;;;;;;64.70;19.98;;;10.60;99.90;;;;;;5032492;28;20879;-89
2023/03/21 00:45:51;;;;;;;67.15;20.75;;;10.50;99.90;;;;;;5001175;28;20526;-89
2023/03/21 00:48:18;;;;;;;73.07;21.90;;;10.50;99.90;;;;;;4998921;28;20045;-89
2023/03/21 00:50:45;;;;;;;87.72;23.63;;;10.50;99.90;;;;;;5016678;28;20072;-88
2023/03/21 00:53:12;;;;;;;76.75;23.25;;;10.60;99.90;;;;;;5002630;28;20069;-89
2023/03/21 00:55:38;;;;;;;82.75;24.42;;;10.60;99.90;;;;;;4999675;28;20560;-89
2023/03/21 00:58:05;;;;;;;79.28;24.88;;;10.60;99.90;;;;;;5003449;28;20041;-89
2023/03/21 01:00:37;;;;;;;84.22;24.60;;;10.60;99.90;;;;;;5003631;28;20037;-89
2023/03/21 01:03:06;;;;;;;83.82;24.65;;;10.50;99.90;;;;;;5004070;28;20047;-88
2023/03/21 01:08:24;;;;;;;76.63;25.23;;;10.60;99.90;;;;;;5020028;28;20037;-89
2023/03/21 01:10:50;;;;;;;80.30;23.55;;;10.60;99.90;;;;;;5018120;28;20033;-89
2023/03/21 01:13:19;;;;;;;86.30;25.00;;;10.60;99.90;;;;;;5043759;28;20056;-89
2023/03/21 01:15:48;;;;;;;82.10;26.15;;;10.60;99.90;;;;;;5000484;28;20342;-88
2023/03/21 01:18:15;;;;;;;73.18;24.30;;;10.60;99.90;;;;;;5018107;28;20057;-89
2023/03/21 01:20:42;;;;;;;73.63;24.75;;;10.60;99.90;;;;;;5000392;28;20044;-88
2023/03/21 01:23:09;;;;;;;69.75;24.75;;;10.60;99.90;;;;;;5031930;28;20033;-89
2023/03/21 01:25:35;;;;;;;62.65;22.90;;;10.60;99.90;;;;;;5003097;28;20037;-89
2023/03/21 01:28:01;;;;;;;66.40;24.10;;;10.60;99.90;;;;;;5001875;28;20037;-89
2023/03/21 01:30:26;;;;;;;68.00;23.90;;;10.70;99.90;;;;;;5003226;28;20044;-89
2023/03/21 01:32:52;;;;;;;58.75;23.23;;;10.60;99.90;;;;;;5018516;28;20034;-89
2023/03/21 01:35:18;;;;;;;52.85;22.17;;;10.70;99.90;;;;;;5000944;28;20834;-89
2023/03/21 01:37:44;;;;;;;64.45;22.88;;;10.60;99.90;;;;;;5000552;28;20085;-89
2023/03/21 01:40:25;;;;;;;57.88;23.50;;;10.60;99.90;;;;;;5020144;28;20033;-90
2023/03/21 01:42:51;;;;;;;55.60;23.63;;;10.70;99.90;;;;;;5018916;28;20109;-89
2023/03/21 01:45:54;;;;;;;54.17;23.10;;;10.60;99.90;;;;;;5002037;28;20037;-89
2023/03/21 01:48:21;;;;;;;54.00;23.55;;;10.70;99.90;;;;;;5014805;28;20029;-89
2023/03/21 01:50:49;;;;;;;52.45;22.73;;;10.70;99.90;;;;;;4999612;28;20255;-89
2023/03/21 01:53:15;;;;;;;55.85;23.88;;;10.70;99.90;;;;;;5016719;28;20119;-89
2023/03/21 01:55:42;;;;;;;47.25;23.25;;;10.60;99.90;;;;;;5018325;28;20037;-89
2023/03/21 01:58:17;;;;;;;50.72;22.73;;;10.70;99.90;;;;;;5016681;28;20427;-89
2023/03/21 02:00:44;;;;;;;52.90;23.73;;;10.70;99.90;;;;;;5000165;28;20067;-89
2023/03/21 02:03:15;;;;;;;50.92;22.75;;;10.70;99.90;;;;;;5045831;28;20041;-89
2023/03/21 02:05:53;;;;;;;53.40;24.20;;;10.70;99.90;;;;;;4999619;28;20036;-89
2023/03/21 02:08:22;;;;;;;52.65;24.17;;;10.70;99.90;;;;;;5018622;28;20039;-89
2023/03/21 02:10:49;;;;;;;47.17;23.35;;;10.80;99.90;;;;;;5002736;28;20045;-89
2023/03/21 02:13:15;;;;;;;50.55;24.17;;;10.70;99.90;;;;;;5000144;28;20033;-88
2023/03/21 02:15:56;;;;;;;54.17;24.08;;;10.80;99.90;;;;;;5016741;28;20155;-89
2023/03/21 02:18:44;;;;;;;49.15;24.40;;;10.70;99.90;;;;;;5046249;28;20111;-89
2023/03/21 02:21:32;;;;;;;51.83;24.02;;;10.70;99.90;;;;;;5002401;28;20944;-89
2023/03/21 02:24:13;;;;;;;45.13;23.10;;;10.70;99.90;;;;;;5017016;28;20040;-89
2023/03/21 02:27:11;;;;;;;45.75;23.73;;;10.70;99.90;;;;;;5001338;28;20132;-88
2023/03/21 02:29:57;;;;;;;45.25;23.73;;;10.70;99.90;;;;;;5017044;28;20037;-89
2023/03/21 02:33:04;;;;;;;46.67;24.77;;;10.70;99.90;;;;;;5001523;28;20541;-88
2023/03/21 02:35:48;;;;;;;45.80;23.02;;;10.70;99.90;;;;;;5017227;28;20560;-89
2023/03/21 02:38:49;;;;;;;49.23;24.13;;;10.70;99.90;;;;;;5041955;28;20041;-89
2023/03/21 02:41:31;;;;;;;43.28;22.92;;;10.80;99.90;;;;;;4934647;28;20369;-89
2023/03/21 02:44:30;;;;;;;47.28;23.80;;;10.80;99.90;;;;;;5013006;28;20116;-89
2023/03/21 02:47:12;;;;;;;44.25;22.05;;;10.70;99.90;;;;;;4922196;28;20042;-89
2023/03/21 02:49:44;;;;;;;40.67;21.77;;;10.80;99.90;;;;;;5018186;28;20070;-89
2023/03/21 02:52:16;;;;;;;39.15;21.05;;;10.70;99.90;;;;;;5018873;28;20403;-88
2023/03/21 02:54:47;;;;;;;37.28;20.63;;;10.70;99.90;;;;;;5005815;28;20040;-89
2023/03/21 02:57:15;;;;;;;36.45;19.85;;;10.70;99.90;;;;;;5043344;28;20533;-88
2023/03/21 02:59:42;;;;;;;35.63;20.25;;;10.70;99.90;;;;;;5005405;28;20128;-89
2023/03/21 03:02:08;;;;;;;42.05;21.52;;;10.80;99.90;;;;;;5004044;28;20045;-89
2023/03/21 03:04:33;;;;;;;39.25;21.25;;;10.80;99.90;;;;;;5002680;28;20035;-89
2023/03/21 03:07:27;;;;;;;39.10;19.80;;;10.70;99.90;;;;;;5006995;28;20333;-89
2023/03/21 03:10:07;;;;;;;42.67;20.42;;;10.70;99.90;;;;;;5003451;28;20489;-89
2023/03/21 03:12:55;;;;;;;38.03;20.20;;;10.70;99.90;;;;;;5005272;28;20422;-89
2023/03/21 03:15:37;;;;;;;38.10;19.33;;;10.70;99.90;;;;;;5003779;28;20401;-88
2023/03/21 03:18:18;;;;;;;37.47;19.38;;;10.70;99.90;;;;;;5004015;28;20037;-89
2023/03/21 03:20:56;;;;;;;36.30;17.75;;;10.70;99.90;;;;;;5036465;28;20095;-89
2023/03/21 03:23:52;;;;;;;35.78;18.42;;;10.70;99.90;;;;;;5033469;28;20407;-89
2023/03/21 03:26:23;;;;;;;34.67;18.10;;;10.70;99.90;;;;;;5028183;28;20038;-89
2023/03/21 03:28:55;;;;;;;35.95;17.48;;;10.70;99.90;;;;;;5033289;28;20088;-89
2023/03/21 03:31:28;;;;;;;32.58;17.17;;;10.70;99.90;;;;;;5007980;28;20026;-89
2023/03/21 03:33:59;;;;;;;34.28;17.10;;;10.70;99.90;;;;;;5018127;28;20244;-89
2023/03/21 03:36:33;;;;;;;35.10;17.90;;;10.70;99.90;;;;;;5032345;28;20050;-89
2023/03/21 03:39:03;;;;;;;32.00;16.90;;;10.60;99.90;;;;;;5004061;28;20037;-89
2023/03/21 03:41:30;;;;;;;31.88;16.65;;;10.70;99.90;;;;;;5003936;28;20391;-89
2023/03/21 03:43:58;;;;;;;30.25;16.70;;;10.60;99.90;;;;;;5017640;28;20292;-89
2023/03/21 03:46:56;;;;;;;27.92;15.80;;;10.60;99.90;;;;;;5003043;28;20398;-89
2023/03/21 03:49:25;;;;;;;27.63;15.50;;;10.60;99.90;;;;;;5018891;28;20422;-89
2023/03/21 03:51:59;;;;;;;31.17;15.45;;;10.60;99.90;;;;;;5005081;28;20048;-90
2023/03/21 03:54:34;;;;;;;29.88;16.17;;;10.60;99.90;;;;;;5004240;28;20060;-89
2023/03/21 03:57:00;;;;;;;26.75;14.65;;;10.60;99.90;;;;;;5005518;28;20037;-89
2023/03/21 03:59:26;;;;;;;28.50;15.15;;;10.60;99.90;;;;;;5003923;28;20041;-88
2023/03/21 04:01:51;;;;;;;28.60;14.82;;;10.60;99.90;;;;;;5004893;28;20057;-89
2023/03/21 04:04:17;;;;;;;25.90;14.50;;;10.60;99.90;;;;;;5016237;28;20042;-89
2023/03/21 04:06:50;;;;;;;26.45;14.85;;;10.60;99.90;;;;;;5001223;28;20471;-89
2023/03/21 04:09:17;;;;;;;25.38;14.57;;;10.60;99.90;;;;;;5003095;28;20073;-89
2023/03/21 04:11:43;;;;;;;27.88;14.85;;;10.50;99.90;;;;;;5020178;28;20037;-89
2023/03/21 04:14:09;;;;;;;29.58;15.40;;;10.50;99.90;;;;;;5017029;28;20464;-89
2023/03/21 04:16:34;;;;;;;28.63;15.18;;;10.60;99.90;;;;;;5000472;28;20034;-89
2023/03/21 04:19:01;;;;;;;28.20;15.43;;;10.60;99.90;;;;;;5001878;28;20120;-89
2023/03/21 04:21:27;;;;;;;26.13;14.15;;;10.60;99.90;;;;;;5004248;28;20360;-90
2023/03/21 04:23:53;;;;;;;25.50;14.68;;;10.50;99.90;;;;;;5002810;28;20049;-89
2023/03/21 04:26:21;;;;;;;28.23;14.95;;;10.60;99.90;;;;;;5004666;28;20123;-90
2023/03/21 04:28:48;;;;;;;28.85;15.32;;;10.50;99.90;;;;;;5005887;28;20474;-89
2023/03/21 04:31:14;;;;;;;29.02;15.13;;;10.50;99.90;;;;;;5020303;28;20049;-90
2023/03/21 04:33:40;;;;;;;30.73;16.35;;;10.50;99.90;;;;;;4999905;28;20036;-83
2023/03/21 04:36:08;;;;;;;27.98;14.45;;;10.60;99.90;;;;;;5015116;28;20084;-83
2023/03/21 04:38:35;;;;;;;33.80;16.15;;;10.50;99.90;;;;;;5001121;28;20037;-83
2023/03/21 04:41:01;;;;;;;28.27;15.48;;;10.60;99.90;;;;;;5017282;28;20359;-83
2023/03/21 04:43:27;;;;;;;27.65;14.57;;;10.50;99.90;;;;;;5001693;28;20040;-83
2023/03/21 04:45:54;;;;;;;27.52;15.18;;;10.50;99.90;;;;;;5003005;28;20065;-83
2023/03/21 04:48:23;;;;;;;31.35;15.20;;;10.50;99.90;;;;;;4998998;28;20051;-83
2023/03/21 04:50:50;;;;;;;31.63;15.25;;;10.50;99.90;;;;;;5001173;28;20046;-83
2023/03/21 04:53:16;;;;;;;29.80;15.15;;;10.60;99.90;;;;;;4997915;28;20285;-83
2023/03/21 04:55:42;;;;;;;31.65;15.68;;;10.50;99.90;;;;;;5000379;28;20059;-83
2023/03/21 04:58:07;;;;;;;30.58;15.52;;;10.50;99.90;;;;;;5017196;28;20927;-83
2023/03/21 05:00:37;;;;;;;32.53;15.98;;;10.50;99.90;;;;;;5045814;28;20037;-84
2023/03/21 05:03:07;;;;;;;30.85;15.35;;;10.60;99.90;;;;;;5016071;28;20038;-83
2023/03/21 05:05:35;;;;;;;31.92;15.57;;;10.60;99.90;;;;;;5032888;28;20042;-83
2023/03/21 05:08:01;;;;;;;28.60;15.15;;;10.50;99.90;;;;;;5015201;28;20052;-84
2023/03/21 05:10:30;;;;;;;32.10;15.13;;;10.60;99.90;;;;;;5000012;28;20041;-83
2023/03/21 05:12:55;;;;;;;27.42;14.30;;;10.50;99.90;;;;;;5032082;28;20046;-83
2023/03/21 05:15:21;;;;;;;28.75;15.18;;;10.50;99.90;;;;;;5014965;28;20526;-84
2023/03/21 05:17:47;;;;;;;33.20;15.63;;;10.60;99.90;;;;;;4998163;28;20033;-83
2023/03/21 05:20:14;;;;;;;27.33;14.10;;;10.50;99.90;;;;;;5013535;28;20246;-83
2023/03/21 05:22:40;;;;;;;30.10;15.48;;;10.50;99.90;;;;;;5015188;28;20384;-83
2023/03/21 05:25:10;;;;;;;29.30;14.45;;;10.60;99.90;;;;;;5016491;28;20728;-83
2023/03/21 05:27:36;;;;;;;29.02;14.77;;;10.60;99.90;;;;;;5016298;28;20137;-83
2023/03/21 05:30:14;;;;;;;30.83;14.35;;;10.50;99.90;;;;;;5000687;28;20145;-83
2023/03/21 05:32:40;;;;;;;33.80;14.55;;;10.60;99.90;;;;;;5014125;28;20452;-83
2023/03/21 05:35:06;;;;;;;27.58;14.32;;;10.60;99.90;;;;;;4996262;28;20079;-83
2023/03/21 05:37:31;;;;;;;27.92;14.25;;;10.50;99.90;;;;;;5001026;28;20041;-83
2023/03/21 05:39:57;;;;;;;32.92;15.00;;;10.60;99.90;;;;;;4999598;28;20037;-83
2023/03/21 05:42:24;;;;;;;27.15;14.27;;;10.60;99.90;;;;;;5017338;28;20138;-83
2023/03/21 05:44:49;;;;;;;32.63;14.38;;;10.60;99.90;;;;;;5000687;28;20063;-83
2023/03/21 05:47:17;;;;;;;36.42;16.48;;;10.60;99.90;;;;;;4998090;28;20466;-81
2023/03/21 05:49:43;;;;;;;33.08;16.50;;;10.60;99.90;;;;;;4997065;28;20375;-83
2023/03/21 05:52:10;;;;;;;31.63;16.30;;;10.60;99.90;;;;;;5000346;28;20132;-83
2023/03/21 05:54:36;;;;;;;31.55;16.92;;;10.60;99.90;;;;;;5015961;28;20037;-82
2023/03/21 05:57:03;;;;;;;33.58;17.70;;;10.60;99.90;;;;;;5017737;28;20037;-83
2023/03/21 05:59:29;;;;;;;33.72;17.90;;;10.60;99.90;;;;;;4998226;28;20038;-83
2023/03/21 06:01:57;;;;;;;33.53;18.55;;;10.60;99.90;;;;;;5000039;28;20129;-82
2023/03/21 06:04:23;;;;;;;33.05;17.70;;;10.70;99.90;;;;;;4999903;28;20087;-83
2023/03/21 06:06:50;;;;;;;33.17;18.17;;;10.60;99.90;;;;;;5040428;28;20045;-83
2023/03/21 06:09:16;;;;;;;31.88;18.10;;;10.60;99.90;;;;;;4998739;28;20151;-83
2023/03/21 06:11:49;;;;;;;40.15;19.40;;;10.70;99.90;;;;;;5001222;28;20136;-82
2023/03/21 06:14:15;;;;;;;32.28;18.67;;;10.70;99.90;;;;;;4997507;28;20212;-83
2023/03/21 06:16:41;;;;;;;35.50;18.42;;;10.70;99.90;;;;;;5020129;28;20068;-83
2023/03/21 06:19:07;;;;;;;34.85;18.63;;;10.70;99.90;;;;;;5001070;28;20033;-83
2023/03/21 06:21:32;;;;;;;33.35;18.42;;;10.70;99.90;;;;;;5018821;28;20230;-82
2023/03/21 06:23:58;;;;;;;37.55;18.33;;;10.70;99.90;;;;;;5003594;28;20041;-83
2023/03/21 06:26:24;;;;;;;29.88;17.77;;;10.70;99.90;;;;;;5003522;28;20449;-83
2023/03/21 06:28:50;;;;;;;30.45;17.05;;;10.80;99.90;;;;;;5020126;28;20049;-83
2023/03/21 06:31:16;;;;;;;34.72;17.95;;;10.80;99.90;;;;;;5018573;28;20418;-83
2023/03/21 06:33:41;;;;;;;30.73;17.88;;;10.80;99.90;;;;;;5019139;28;20369;-82
2023/03/21 06:36:07;;;;;;;30.85;17.70;;;10.80;99.90;;;;;;5036129;28;20054;-83
2023/03/21 06:38:36;;;;;;;33.70;17.65;;;10.80;99.90;;;;;;5001232;28;20431;-82
2023/03/21 06:41:03;;;;;;;30.30;16.77;;;10.80;99.90;;;;;;5003723;28;20037;-83
2023/03/21 06:43:30;;;;;;;32.67;18.08;;;10.80;99.90;;;;;;5004107;28;20075;-83
2023/03/21 06:45:59;;;;;;;27.60;17.17;;;10.90;99.90;;;;;;5003641;28;20468;-83
2023/03/21 06:48:26;;;;;;;30.58;17.48;;;10.90;99.90;;;;;;5018421;28;20078;-83
2023/03/21 06:50:53;;;;;;;29.33;17.02;;;10.80;99.90;;;;;;5041889;28;20205;-82
2023/03/21 06:53:23;;;;;;;29.20;17.52;;;10.90;99.90;;;;;;5032216;28;20510;-83
2023/03/21 06:56:02;;;;;;;29.80;18.00;;;10.90;99.90;;;;;;4999149;28;20386;-83
2023/03/21 06:58:28;;;;;;;29.60;18.02;;;10.90;99.90;;;;;;5000494;28;20053;-83
2023/03/21 07:00:53;;;;;;;29.40;17.85;;;10.90;99.90;;;;;;5014732;28;20037;-82
2023/03/21 07:03:19;;;;;;;29.35;17.50;;;10.90;99.90;;;;;;5044450;28;20044;-83
2023/03/21 07:05:45;;;;;;;28.73;17.55;;;10.90;99.90;;;;;;5019495;28;20469;-83
2023/03/21 07:08:12;;;;;;;30.67;17.83;;;11.00;99.90;;;;;;5002183;28;20037;-83
2023/03/21 07:10:43;;;;;;;25.75;16.50;;;11.00;99.90;;;;;;5003056;28;20072;-82
2023/03/21 07:13:08;;;;;;;25.15;16.15;;;11.00;99.90;;;;;;5002200;28;20396;-83
2023/03/21 07:15:36;;;;;;;24.77;16.00;;;11.00;99.90;;;;;;5001687;28;20213;-83
2023/03/21 07:18:03;;;;;;;25.40;15.95;;;10.90;99.90;;;;;;5003838;28;20403;-83
2023/03/21 07:20:29;;;;;;;22.85;15.15;;;11.00;99.90;;;;;;5001799;28;20155;-83
2023/03/21 07:22:55;;;;;;;24.50;15.18;;;11.00;99.90;;;;;;5003012;28;20091;-83
2023/03/21 07:25:21;;;;;;;21.75;14.95;;;11.00;99.90;;;;;;5018619;28;20543;-83
2023/03/21 07:27:47;;;;;;;22.88;14.55;;;11.10;99.90;;;;;;5001782;28;20041;-83
2023/03/21 07:30:14;;;;;;;19.48;13.48;;;11.10;99.90;;;;;;5001848;28;20099;-83
2023/03/21 07:32:40;;;;;;;17.40;12.48;;;11.10;99.90;;;;;;5001089;28;20076;-83
2023/03/21 07:35:09;;;;;;;18.45;13.32;;;11.20;99.90;;;;;;4999626;28;20057;-83
2023/03/21 07:37:34;;;;;;;17.45;10.77;;;11.20;99.90;;;;;;5016815;28;20042;-82
2023/03/21 07:40:00;;;;;;;16.27;12.15;;;11.10;99.90;;;;;;5016878;28;20043;-83
2023/03/21 07:42:26;;;;;;;14.07;11.02;;;11.20;99.90;;;;;;5002495;28;20030;-83
2023/03/21 07:44:53;;;;;;;17.38;11.73;;;11.20;99.90;;;;;;5001276;28;20410;-83
2023/03/21 07:47:20;;;;;;;16.40;11.93;;;11.10;99.90;;;;;;5002162;28;20455;-83
2023/03/21 07:49:46;;;;;;;16.00;11.77;;;11.20;99.90;;;;;;5013306;28;20041;-83
2023/03/21 07:52:11;;;;;;;14.85;10.93;;;11.10;99.90;;;;;;5003623;28;20393;-83
2023/03/21 07:54:37;;;;;;;16.27;10.10;;;11.20;99.90;;;;;;4999581;28;20049;-83
2023/03/21 07:57:09;;;;;;;14.73;9.88;;;11.10;99.90;;;;;;5018403;28;20033;-82
2023/03/21 07:59:34;;;;;;;13.82;9.82;;;11.20;99.90;;;;;;5024936;28;20449;-83
2023/03/21 08:02:00;;;;;;;12.73;9.02;;;11.10;99.90;;;;;;5002451;28;20620;-83
2023/03/21 08:04:28;;;;;;;13.18;9.15;;;11.10;99.90;;;;;;5001534;28;20740;-82
2023/03/21 08:06:54;;;;;;;12.60;9.63;;;11.10;99.90;;;;;;5040188;28;20454;-83
2023/03/21 08:09:20;;;;;;;13.80;9.25;;;11.10;99.90;;;;;;5029612;28;20387;-83
2023/03/21 08:11:45;;;;;;;12.15;8.68;;;11.10;99.90;;;;;;5005880;28;20128;-83
2023/03/21 08:14:11;;;;;;;10.23;7.90;;;11.10;99.90;;;;;;5016209;28;20041;-82
2023/03/21 08:16:37;;;;;;;10.40;7.97;;;11.10;99.90;;;;;;5001433;28;20041;-83
2023/03/21 08:19:03;;;;;;;9.07;7.45;;;11.10;99.90;;;;;;5000278;28;20436;-83
2023/03/21 08:21:28;;;;;;;9.75;7.45;;;11.00;99.90;;;;;;5003895;28;20036;-83
2023/03/21 08:23:54;;;;;;;8.13;6.93;;;11.10;99.90;;;;;;5015218;28;20077;-83
2023/03/21 08:26:20;;;;;;;11.43;7.32;;;11.10;99.90;;;;;;5000637;28;20116;-83
2023/03/21 08:28:45;;;;;;;10.20;7.82;;;11.10;99.90;;;;;;5016684;28;20043;-83
2023/03/21 08:31:12;;;;;;;10.18;7.70;;;11.10;99.90;;;;;;5031133;28;20048;-83
2023/03/21 08:33:41;;;;;;;10.68;8.27;;;11.00;99.90;;;;;;4998652;28;20406;-83
2023/03/21 08:36:07;;;;;;;8.07;7.15;;;11.00;99.90;;;;;;4999086;28;20052;-83
2023/03/21 08:38:33;;;;;;;9.48;7.65;;;11.00;99.90;;;;;;5029508;28;20081;-83
2023/03/21 08:40:59;;;;;;;10.65;8.30;;;11.10;99.90;;;;;;5000427;28;20045;-83
2023/03/21 08:43:26;;;;;;;11.65;8.95;;;11.10;99.90;;;;;;5002105;28;20025;-84
2023/03/21 08:45:52;;;;;;;12.25;9.27;;;11.00;99.90;;;;;;5000925;28;20036;-83
2023/03/21 08:48:18;;;;;;;12.32;10.10;;;10.90;99.90;;;;;;5000676;28;20395;-83
2023/03/21 08:50:44;;;;;;;13.68;10.32;;;10.90;99.90;;;;;;4999001;28;20041;-83
2023/03/21 08:53:13;;;;;;;14.70;11.18;;;11.00;99.90;;;;;;5016075;28;20029;-83
2023/03/21 08:55:38;;;;;;;13.68;10.52;;;11.00;99.90;;;;;;4997592;28;20045;-83
2023/03/21 08:58:05;;;;;;;13.93;11.05;;;11.10;99.90;;;;;;5000271;28;20037;-82
2023/03/21 09:00:31;;;;;;;15.68;11.82;;;11.00;99.90;;;;;;5000018;28;20422;-83
2023/03/21 09:02:57;;;;;;;14.23;10.82;;;11.00;99.90;;;;;;4997878;28;20030;-83
2023/03/21 09:05:27;;;;;;;16.73;10.48;;;11.10;99.90;;;;;;5018406;28;20484;-83
2023/03/21 09:07:53;;;;;;;15.20;10.77;;;11.20;99.90;;;;;;5015415;28;20033;-82
2023/03/21 09:10:20;;;;;;;14.48;10.27;;;11.00;99.90;;;;;;5000996;28;20044;-83
2023/03/21 09:12:47;;;;;;;15.07;10.30;;;10.90;99.90;;;;;;5016311;28;20037;-83
2023/03/21 09:15:13;;;;;;;12.95;10.18;;;11.10;99.90;;;;;;4998143;28;20041;-82
2023/03/21 09:17:42;;;;;;;13.95;11.27;;;11.10;99.90;;;;;;5000208;28;20037;-83
2023/03/21 09:20:24;;;;;;;16.45;12.15;;;10.90;99.90;;;;;;4998379;28;20505;-83
2023/03/21 09:22:51;;;;;;;16.70;12.23;;;11.00;99.90;;;;;;5001507;28;20082;-83
2023/03/21 09:25:18;;;;;;;17.48;12.65;;;11.00;99.90;;;;;;5026759;28;20037;-83
2023/03/21 09:27:47;;;;;;;19.20;12.75;;;11.00;99.90;;;;;;5001269;28;20047;-83
2023/03/21 09:30:15;;;;;;;20.35;13.68;;;10.90;99.90;;;;;;5002362;28;20079;-83
2023/03/21 09:32:41;;;;;;;18.17;13.18;;;11.00;99.90;;;;;;5032141;28;20518;-83
2023/03/21 09:35:10;;;;;;;19.90;13.57;;;11.00;99.90;;;;;;4998512;28;20127;-83
2023/03/21 09:37:41;;;;;;;22.95;15.00;;;10.90;99.90;;;;;;5000522;28;20056;-83
2023/03/21 09:40:19;;;;;;;21.13;14.68;;;10.90;99.90;;;;;;5014176;28;20085;-83
2023/03/21 09:43:01;;;;;;;22.25;15.98;;;10.90;99.90;;;;;;4999969;28;20088;-83
2023/03/21 09:45:38;;;;;;;24.30;15.43;;;11.00;99.90;;;;;;4997361;28;20052;-83
2023/03/21 09:48:16;;;;;;;25.17;16.00;;;11.00;99.90;;;;;;5017615;28;20057;-83
2023/03/21 09:50:45;;;;;;;23.63;15.63;;;10.90;99.90;;;;;;5011120;28;20057;-84
2023/03/21 09:53:29;;;;;;;22.67;16.10;;;10.80;99.90;;;;;;4999582;28;20081;-84
2023/03/21 09:55:54;;;;;;;23.00;15.82;;;10.90;99.90;;;;;;4999635;28;20080;-84
2023/03/21 09:58:32;;;;;;;26.40;16.27;;;10.80;99.90;;;;;;5040399;28;20061;-83
2023/03/21 10:01:27;;;;;;;25.95;17.23;;;10.80;99.90;;;;;;5001051;28;20136;-83
2023/03/21 10:03:55;;;;;;;24.10;17.70;;;10.90;99.90;;;;;;4997523;28;20041;-83
2023/03/21 10:06:27;;;;;;;26.50;17.75;;;10.90;99.90;;;;;;5012313;28;20486;-83
2023/03/21 10:09:00;;;;;;;28.63;18.23;;;10.90;99.90;;;;;;5013999;28;20045;-83
2023/03/21 10:11:43;;;;;;;29.80;19.27;;;10.90;99.90;;;;;;4996563;28;20459;-84
2023/03/21 10:14:20;;;;;;;25.42;18.13;;;10.90;99.90;;;;;;4999460;28;20049;-83
2023/03/21 10:16:55;;;;;;;26.98;18.45;;;10.90;99.90;;;;;;4999231;28;20261;-84
2023/03/21 10:19:22;;;;;;;29.65;18.98;;;10.90;99.90;;;;;;5041102;28;20498;-84
2023/03/21 10:21:50;;;;;;;28.73;19.27;;;10.90;99.90;;;;;;5000575;28;20072;-83
2023/03/21 10:24:20;;;;;;;32.85;20.33;;;10.80;99.90;;;;;;4999721;28;20604;-83
2023/03/21 10:26:48;;;;;;;31.50;20.15;;;10.90;99.90;;;;;;5004823;28;20475;-83
2023/03/21 10:29:17;;;;;;;33.50;20.40;;;10.90;99.90;;;;;;5017826;28;20053;-83
2023/03/21 10:31:45;;;;;;;32.00;20.95;;;10.90;99.90;;;;;;4998888;28;20072;-83
2023/03/21 10:34:36;;;;;;;28.58;19.65;;;11.00;99.90;;;;;;5012607;28;20050;-83
2023/03/21 10:37:04;;;;;;;29.50;19.90;;;11.10;99.90;;;;;;5014946;28;20045;-83
2023/03/21 10:39:44;;;;;;;29.60;18.80;;;11.10;99.90;;;;;;4999520;28;20049;-83
2023/03/21 10:42:22;;;;;;;28.35;19.02;;;11.20;99.90;;;;;;5000404;28;20048;-82
2023/03/21 10:44:50;;;;;;;30.40;18.23;;;11.30;99.90;;;;;;4997016;28;20567;-83
2023/03/21 10:47:26;;;;;;;25.23;17.98;;;11.40;99.90;;;;;;4996662;28;20042;-83
2023/03/21 10:49:52;;;;;;;22.60;16.75;;;11.50;99.90;;;;;;4996436;28;20364;-83
2023/03/21 10:52:21;;;;;;;22.08;17.05;;;11.50;99.90;;;;;;5015447;28;20080;-82
2023/03/21 10:54:47;;;;;;;20.25;14.88;;;11.60;99.90;;;;;;5013830;28;20704;-83
2023/03/21 10:57:22;;;;;;;25.15;14.43;;;11.50;99.90;;;;;;5018706;28;20498;-82
2023/03/21 11:00:13;;;;;;;23.73;15.45;;;11.50;99.90;;;;;;5014304;28;20038;-83
2023/03/21 11:02:40;;;;;;;21.73;14.05;;;11.70;99.90;;;;;;5002780;28;20121;-82
2023/03/21 11:05:23;;;;;;;19.55;13.43;;;11.80;99.90;;;;;;5000090;28;20366;-83
2023/03/21 11:08:01;;;;;;;19.25;13.68;;;11.90;99.90;;;;;;5029468;28;20148;-82
2023/03/21 11:10:36;;;;;;;21.88;13.30;;;12.20;99.90;;;;;;5020017;28;20049;-82
2023/03/21 11:13:17;;;;;;;21.25;12.93;;;12.10;99.90;;;;;;5019992;28;20040;-83
2023/03/21 11:15:55;;;;;;;19.25;13.07;;;12.00;99.90;;;;;;5017155;28;20158;-83
2023/03/21 11:18:29;;;;;;;19.60;12.80;;;12.10;99.90;;;;;;5001584;28;20037;-83
2023/03/21 11:21:03;;;;;;;18.23;12.70;;;12.50;99.90;;;;;;5003237;28;20707;-82
2023/03/21 11:23:32;;;;;;;18.08;11.40;;;12.40;99.90;;;;;;5002692;28;20291;-83
2023/03/21 11:26:00;;;;;;;17.85;11.40;;;12.40;99.90;;;;;;4999299;28;20041;-82
2023/03/21 11:28:35;;;;;;;17.95;11.15;;;12.50;99.90;;;;;;4996621;28;20048;-83
2023/03/21 11:31:02;;;;;;;18.25;11.75;;;12.80;99.90;;;;;;5017554;28;20544;-83
2023/03/21 11:33:44;;;;;;;17.42;11.05;;;12.50;99.90;;;;;;4999591;28;20096;-82
2023/03/21 11:36:19;;;;;;;14.07;11.68;;;12.40;99.90;;;;;;5020888;28;20131;-83
2023/03/21 11:39:08;;;;;;;;;;;12.70;99.90;;;;;;5001987;28;20525;-83
2023/03/21 11:41:34;;;;;;;17.65;12.00;;;12.50;99.90;;;;;;4968242;28;19932;-83
2023/03/21 11:44:01;;;;;;;17.60;12.02;;;12.50;99.90;;;;;;5002752;28;20032;-83
2023/03/21 11:46:31;;;;;;;20.05;12.15;;;12.60;99.90;;;;;;5001126;28;20048;-83
2023/03/21 11:48:59;;;;;;;16.80;11.38;;;12.80;99.90;;;;;;5015495;28;20391;-83
2023/03/21 11:51:37;;;;;;;15.82;11.35;;;12.80;99.90;;;;;;5024115;28;20069;-83
2023/03/21 11:54:05;;;;;;;14.27;9.95;;;12.90;99.90;;;;;;5002772;28;20037;-83
2023/03/21 11:56:45;;;;;;;15.82;10.25;;;12.80;99.90;;;;;;5003639;28;20482;-83
2023/03/21 11:59:25;;;;;;;18.45;10.55;;;13.00;99.90;;;;;;5020687;28;20111;-83
2023/03/21 12:02:02;;;;;;;15.30;9.68;;;13.30;99.90;;;;;;4998068;28;20037;-84
2023/03/21 12:04:51;;;;;;;16.70;10.48;;;12.90;99.90;;;;;;5015219;28;20041;-83
2023/03/21 12:07:47;;;;;;;17.45;10.63;;;13.20;99.90;;;;;;5011712;28;20380;-83
2023/03/21 12:10:37;;;;;;;15.88;10.10;;;13.10;99.90;;;;;;5000776;28;20124;-83
2023/03/21 12:13:36;;;;;;;14.63;10.25;;;13.00;99.90;;;;;;5016811;28;20042;-83
2023/03/21 12:16:24;;;;;;;15.82;9.07;;;12.90;99.90;;;;;;5002389;28;20203;-83
2023/03/21 12:19:07;;;;;;;15.43;9.77;;;12.70;99.90;;;;;;5014036;28;20041;-83
2023/03/21 12:21:57;;;;;;;14.60;9.30;;;12.80;99.90;;;;;;5003230;28;20033;-84
2023/03/21 12:24:26;;;;;;;14.52;9.18;;;12.70;99.90;;;;;;5018722;28;20135;-83
2023/03/21 12:27:27;;;;;;;15.25;9.32;;;12.60;99.90;;;;;;5025826;28;20394;-83
2023/03/21 12:30:12;;;;;;;16.77;8.70;;;12.60;99.90;;;;;;5016037;28;20072;-83
2023/03/21 12:33:00;;;;;;;12.23;8.95;;;12.40;99.90;;;;;;5004747;28;20045;-84
2023/03/21 12:35:46;;;;;;;14.98;9.20;;;12.50;99.90;;;;;;4999622;28;20080;-84
2023/03/21 12:38:41;;;;;;;17.83;10.57;;;12.10;99.90;;;;;;5000294;28;20112;-83
2023/03/21 12:41:27;;;;;;;14.82;8.93;;;12.10;99.90;;;;;;5004897;28;20056;-84
2023/03/21 12:43:53;;;;;;;15.88;9.18;;;12.00;99.90;;;;;;4999618;28;20084;-84
2023/03/21 12:46:22;;;;;;;13.18;9.23;;;11.90;99.90;;;;;;5001544;28;20068;-82
2023/03/21 12:49:01;;;;;;;15.07;8.70;;;11.90;99.90;;;;;;5015873;28;20054;-83
2023/03/21 12:51:32;;;;;;;19.40;9.80;;;12.00;99.90;;;;;;5020718;28;20057;-83